Time;durP1;ratioP1;P1;durP2;ratioP2;P2;SDS_P1;SDS_P2;PMS_P1;PMS_P2;Temp;Humidity;BMP_temperature;BMP_pressure;BME280_temperature;BME280_humidity;BME280_pressure;Samples;Min_cycle;Max_cycle;Signal;HPM_P1;HPM_P2
2023/02/10 00:00:57;;;;;;;16.33;10.00;;;;;;;;;;5134609;27;20274;-60
2023/02/10 00:03:24;;;;;;;14.13;9.43;;;;;;;;;;5134484;27;20191;-60
2023/02/10 00:05:51;;;;;;;13.80;10.52;;;;;;;;;;5134446;27;20748;-60
2023/02/10 00:08:18;;;;;;;14.63;9.95;;;;;;;;;;5134340;27;20190;-60
2023/02/10 00:10:45;;;;;;;11.50;8.90;;;;;;;;;;5134512;27;20200;-60
2023/02/10 00:13:12;;;;;;;11.95;9.18;;;;;;;;;;5134407;27;20673;-60
2023/02/10 00:15:39;;;;;;;14.07;9.32;;;;;;;;;;5134602;27;20248;-60
2023/02/10 00:18:07;;;;;;;15.15;10.30;;;;;;;;;;5134237;27;20185;-60
2023/02/10 00:20:34;;;;;;;13.98;9.18;;;;;;;;;;5134118;27;20205;-61
2023/02/10 00:23:01;;;;;;;12.60;9.13;;;;;;;;;;5134114;27;20192;-60
2023/02/10 00:25:28;;;;;;;13.85;9.02;;;;;;;;;;5134279;27;20191;-60
2023/02/10 00:27:55;;;;;;;15.73;10.70;;;;;;;;;;5134204;27;20524;-60
2023/02/10 00:30:22;;;;;;;14.48;9.68;;;;;;;;;;5133699;27;20279;-61
2023/02/10 00:32:49;;;;;;;13.57;10.07;;;;;;;;;;5134129;27;20647;-60
2023/02/10 00:35:17;;;;;;;15.75;10.40;;;;;;;;;;5133842;27;20184;-61
2023/02/10 00:37:44;;;;;;;13.52;9.68;;;;;;;;;;5134071;27;20188;-60
2023/02/10 00:40:11;;;;;;;13.00;9.15;;;;;;;;;;5134076;27;20279;-60
2023/02/10 00:42:38;;;;;;;14.18;10.35;;;;;;;;;;5133880;27;20667;-60
2023/02/10 00:45:05;;;;;;;18.63;11.98;;;;;;;;;;5133812;27;20238;-60
2023/02/10 00:47:32;;;;;;;14.35;9.55;;;;;;;;;;5133827;27;20234;-60
2023/02/10 00:49:59;;;;;;;18.63;9.80;;;;;;;;;;5133803;27;20681;-61
2023/02/10 00:52:27;;;;;;;11.48;9.38;;;;;;;;;;5134062;28;20197;-60
2023/02/10 00:54:54;;;;;;;12.82;10.45;;;;;;;;;;5133903;28;20184;-60
2023/02/10 00:57:21;;;;;;;11.88;9.27;;;;;;;;;;5133766;28;20216;-60
2023/02/10 00:59:48;;;;;;;14.13;8.70;;;;;;;;;;5133798;28;20541;-60
2023/02/10 01:02:15;;;;;;;14.57;8.95;;;;;;;;;;5133642;28;20193;-60
2023/02/10 01:04:42;;;;;;;13.85;9.70;;;;;;;;;;5133899;28;20191;-60
2023/02/10 01:07:09;;;;;;;14.32;10.18;;;;;;;;;;5133797;28;20275;-60
2023/02/10 01:09:38;;;;;;;13.80;9.82;;;;;;;;;;5133857;28;20686;-60
2023/02/10 01:12:05;;;;;;;16.95;11.00;;;;;;;;;;5133677;28;20283;-60
2023/02/10 01:14:32;;;;;;;12.05;9.57;;;;;;;;;;5133669;28;20279;-61
2023/02/10 01:16:58;;;;;;;13.50;9.80;;;;;;;;;;5133558;28;20666;-61
2023/02/10 01:19:25;;;;;;;16.40;9.80;;;;;;;;;;5133750;28;20189;-61
2023/02/10 01:21:52;;;;;;;14.40;9.75;;;;;;;;;;5133741;28;20199;-61
2023/02/10 01:24:19;;;;;;;13.80;10.10;;;;;;;;;;5133554;28;20242;-60
2023/02/10 01:26:48;;;;;;;16.33;10.75;;;;;;;;;;5133550;28;20190;-60
2023/02/10 01:29:15;;;;;;;13.30;9.82;;;;;;;;;;5133392;28;20229;-60
2023/02/10 01:31:43;;;;;;;13.63;9.60;;;;;;;;;;5133376;28;20195;-60
2023/02/10 01:34:10;;;;;;;14.82;11.20;;;;;;;;;;5133539;28;20279;-60
2023/02/10 01:36:36;;;;;;;12.02;9.95;;;;;;;;;;5133445;28;20217;-60
2023/02/10 01:39:03;;;;;;;14.88;10.43;;;;;;;;;;5133351;28;20671;-60
2023/02/10 01:41:30;;;;;;;13.43;9.35;;;;;;;;;;5134659;27;20214;-60
2023/02/10 01:44:00;;;;;;;14.77;10.35;;;;;;;;;;5137132;27;20184;-61
2023/02/10 01:46:28;;;;;;;16.15;11.90;;;;;;;;;;5137038;27;20251;-60
2023/02/10 01:48:56;;;;;;;12.27;8.98;;;;;;;;;;5137015;27;20670;-61
2023/02/10 01:51:26;;;;;;;12.55;9.75;;;;;;;;;;5137065;27;20640;-60
2023/02/10 01:53:53;;;;;;;14.52;9.35;;;;;;;;;;5137082;27;20575;-61
2023/02/10 01:56:20;;;;;;;14.88;10.40;;;;;;;;;;5136865;27;20218;-60
2023/02/10 01:58:47;;;;;;;15.05;9.98;;;;;;;;;;5136821;27;20185;-60
2023/02/10 02:01:16;;;;;;;12.90;9.60;;;;;;;;;;5137060;27;20184;-61
2023/02/10 02:03:43;;;;;;;19.23;10.50;;;;;;;;;;5136925;27;20235;-60
2023/02/10 02:06:10;;;;;;;12.35;9.18;;;;;;;;;;5136861;27;20189;-60
2023/02/10 02:08:37;;;;;;;13.13;9.88;;;;;;;;;;5136792;27;20533;-60
2023/02/10 02:11:10;;;;;;;13.52;10.05;;;;;;;;;;5136627;27;20185;-61
2023/02/10 02:13:44;;;;;;;16.05;10.95;;;;;;;;;;5136899;27;20533;-60
2023/02/10 02:16:15;;;;;;;13.00;9.60;;;;;;;;;;5136651;27;20208;-60
2023/02/10 02:18:47;;;;;;;16.15;10.85;;;;;;;;;;5136696;27;20193;-60
2023/02/10 02:21:31;;;;;;;13.90;10.15;;;;;;;;;;5136578;27;20193;-61
2023/02/10 02:24:11;;;;;;;14.68;9.50;;;;;;;;;;5136697;27;20608;-60
2023/02/10 02:26:46;;;;;;;15.05;9.93;;;;;;;;;;5136605;27;20543;-60
2023/02/10 02:29:31;;;;;;;14.82;9.80;;;;;;;;;;5136422;27;20183;-60
2023/02/10 02:32:01;;;;;;;15.52;10.20;;;;;;;;;;5136029;27;20267;-60
2023/02/10 02:34:31;;;;;;;14.40;10.60;;;;;;;;;;5136457;27;20189;-60
2023/02/10 02:37:00;;;;;;;15.00;10.05;;;;;;;;;;5136314;27;20216;-60
2023/02/10 02:39:28;;;;;;;12.20;9.27;;;;;;;;;;5136227;27;20299;-60
2023/02/10 02:42:06;;;;;;;16.17;10.55;;;;;;;;;;5136220;27;20279;-61
2023/02/10 02:44:33;;;;;;;15.63;10.00;;;;;;;;;;5135846;27;20202;-60
2023/02/10 02:47:06;;;;;;;13.98;9.77;;;;;;;;;;5136251;27;20184;-60
2023/02/10 02:49:38;;;;;;;14.82;10.35;;;;;;;;;;5136090;27;20193;-60
2023/02/10 02:52:06;;;;;;;14.35;9.90;;;;;;;;;;5135676;27;20562;-60
2023/02/10 02:54:35;;;;;;;16.80;10.13;;;;;;;;;;5135965;27;20195;-60
2023/02/10 02:57:07;;;;;;;14.88;10.10;;;;;;;;;;5135732;27;20308;-62
2023/02/10 02:59:36;;;;;;;15.82;11.13;;;;;;;;;;5135999;27;20279;-60
2023/02/10 03:02:05;;;;;;;15.20;10.43;;;;;;;;;;5135772;27;20338;-60
2023/02/10 03:04:34;;;;;;;15.52;10.70;;;;;;;;;;5135791;27;20727;-60
2023/02/10 03:07:01;;;;;;;13.57;9.75;;;;;;;;;;5135599;27;20194;-60
2023/02/10 03:09:28;;;;;;;15.48;11.20;;;;;;;;;;5135453;27;20281;-60
2023/02/10 03:11:55;;;;;;;15.02;10.88;;;;;;;;;;5135679;27;20187;-60
2023/02/10 03:14:22;;;;;;;16.73;10.77;;;;;;;;;;5135433;27;20192;-60
2023/02/10 03:16:49;;;;;;;15.35;11.60;;;;;;;;;;5135351;27;20260;-60
2023/02/10 03:19:18;;;;;;;13.48;9.65;;;;;;;;;;5135341;27;20188;-60
2023/02/10 03:21:45;;;;;;;17.67;11.02;;;;;;;;;;5135302;27;20275;-60
2023/02/10 03:24:11;;;;;;;14.75;10.40;;;;;;;;;;5135190;27;20231;-60
2023/02/10 03:26:38;;;;;;;17.33;11.93;;;;;;;;;;5135361;27;20275;-60
2023/02/10 03:29:06;;;;;;;16.75;10.75;;;;;;;;;;5135271;27;20187;-61
2023/02/10 03:31:34;;;;;;;19.48;12.02;;;;;;;;;;5135221;27;20224;-61
2023/02/10 03:34:01;;;;;;;15.02;11.40;;;;;;;;;;5135155;27;20577;-61
2023/02/10 03:36:29;;;;;;;14.80;11.30;;;;;;;;;;5135326;27;20208;-60
2023/02/10 03:38:56;;;;;;;17.08;10.93;;;;;;;;;;5135229;27;20188;-61
2023/02/10 03:41:23;;;;;;;16.13;11.00;;;;;;;;;;5135095;27;20198;-60
2023/02/10 03:43:50;;;;;;;16.75;11.60;;;;;;;;;;5134876;27;20655;-61
2023/02/10 03:46:16;;;;;;;15.82;10.18;;;;;;;;;;5134679;27;20218;-60
2023/02/10 03:48:43;;;;;;;15.93;11.80;;;;;;;;;;5134744;27;20194;-60
2023/02/10 03:51:11;;;;;;;18.17;11.90;;;;;;;;;;5134539;27;20216;-60
2023/02/10 03:53:39;;;;;;;20.60;12.25;;;;;;;;;;5134831;27;20275;-60
2023/02/10 03:56:07;;;;;;;19.50;11.18;;;;;;;;;;5134620;27;20616;-60
2023/02/10 03:58:34;;;;;;;16.23;12.63;;;;;;;;;;5135005;27;20200;-60
2023/02/10 04:01:01;;;;;;;19.27;11.30;;;;;;;;;;5134656;27;20192;-60
2023/02/10 04:03:28;;;;;;;16.95;11.65;;;;;;;;;;5134113;27;20223;-61
2023/02/10 04:05:55;;;;;;;20.92;13.18;;;;;;;;;;5134091;27;20201;-60
2023/02/10 04:08:21;;;;;;;17.25;11.65;;;;;;;;;;5134479;27;20605;-60
2023/02/10 04:10:50;;;;;;;17.67;12.00;;;;;;;;;;5134462;27;20283;-61
2023/02/10 04:13:17;;;;;;;24.42;13.20;;;;;;;;;;5134362;27;20199;-60
2023/02/10 04:15:43;;;;;;;19.02;12.10;;;;;;;;;;5134277;27;20669;-60
2023/02/10 04:18:10;;;;;;;19.70;12.40;;;;;;;;;;5134127;27;20225;-60
2023/02/10 04:20:37;;;;;;;22.38;13.00;;;;;;;;;;5134361;27;20272;-60
2023/02/10 04:23:04;;;;;;;15.40;11.65;;;;;;;;;;5134235;27;20279;-60
2023/02/10 04:25:31;;;;;;;20.33;12.10;;;;;;;;;;5134179;27;20676;-60
2023/02/10 04:27:59;;;;;;;21.15;14.43;;;;;;;;;;5134028;27;20206;-60
2023/02/10 04:30:26;;;;;;;23.55;14.90;;;;;;;;;;5134005;27;20195;-60
2023/02/10 04:32:53;;;;;;;19.83;13.43;;;;;;;;;;5133941;27;20192;-61
2023/02/10 04:35:20;;;;;;;18.98;12.27;;;;;;;;;;5133915;27;20657;-60
2023/02/10 04:37:47;;;;;;;21.08;13.98;;;;;;;;;;5134000;27;20222;-60
2023/02/10 04:40:14;;;;;;;19.90;13.50;;;;;;;;;;5133938;27;20188;-60
2023/02/10 04:42:41;;;;;;;27.08;13.45;;;;;;;;;;5133910;27;20185;-60
2023/02/10 04:45:10;;;;;;;20.75;13.95;;;;;;;;;;5133606;27;20657;-60
2023/02/10 04:47:37;;;;;;;23.77;15.35;;;;;;;;;;5133654;27;20234;-60
2023/02/10 04:50:04;;;;;;;22.45;14.95;;;;;;;;;;5133820;27;20279;-60
2023/02/10 04:52:31;;;;;;;22.23;14.93;;;;;;;;;;5134056;27;20200;-60
2023/02/10 04:54:58;;;;;;;22.50;14.65;;;;;;;;;;5133789;28;20195;-60
2023/02/10 04:57:25;;;;;;;19.65;13.43;;;;;;;;;;5133761;28;20216;-60
2023/02/10 04:59:52;;;;;;;26.75;14.32;;;;;;;;;;5133630;28;20189;-61
2023/02/10 05:02:21;;;;;;;27.38;16.30;;;;;;;;;;5133873;28;20218;-61
2023/02/10 05:04:48;;;;;;;25.15;15.20;;;;;;;;;;5133797;28;20193;-60
2023/02/10 05:07:15;;;;;;;28.40;17.17;;;;;;;;;;5133771;28;20184;-60
2023/02/10 05:09:41;;;;;;;30.17;16.98;;;;;;;;;;5133659;28;20555;-60
2023/02/10 05:12:08;;;;;;;26.63;18.88;;;;;;;;;;5133473;28;20678;-60
2023/02/10 05:14:35;;;;;;;26.65;15.85;;;;;;;;;;5133482;28;20284;-60
2023/02/10 05:17:02;;;;;;;30.08;18.17;;;;;;;;;;5137563;27;20218;-60
2023/02/10 05:19:31;;;;;;;27.88;18.58;;;;;;;;;;5137760;27;20184;-61
2023/02/10 05:21:58;;;;;;;33.75;18.55;;;;;;;;;;5137697;27;20274;-61
2023/02/10 05:24:25;;;;;;;30.17;18.75;;;;;;;;;;5137599;27;20531;-61
2023/02/10 05:26:52;;;;;;;33.50;18.45;;;;;;;;;;5137476;27;20275;-60
2023/02/10 05:29:19;;;;;;;30.85;18.63;;;;;;;;;;5137672;27;20192;-60
2023/02/10 05:31:46;;;;;;;28.60;17.52;;;;;;;;;;5137603;27;20195;-60
2023/02/10 05:34:13;;;;;;;27.42;17.15;;;;;;;;;;5137486;27;20641;-61
2023/02/10 05:36:43;;;;;;;29.30;17.75;;;;;;;;;;5137479;27;20275;-60
2023/02/10 05:41:51;;;;;;;29.98;18.30;;;;;;;;;;5133628;27;20184;-59
2023/02/10 05:44:18;;;;;;;35.55;20.45;;;;;;;;;;5137398;27;20280;-59
2023/02/10 05:46:45;;;;;;;28.45;18.40;;;;;;;;;;5137035;27;20299;-59
2023/02/10 05:49:12;;;;;;;31.23;20.00;;;;;;;;;;5137204;27;20279;-59
2023/02/10 05:51:39;;;;;;;34.95;19.63;;;;;;;;;;5137024;27;20195;-59
2023/02/10 05:54:07;;;;;;;34.03;21.10;;;;;;;;;;5137303;27;20280;-59
2023/02/10 05:56:34;;;;;;;30.92;18.25;;;;;;;;;;5137019;27;20188;-59
2023/02/10 05:59:01;;;;;;;33.33;18.80;;;;;;;;;;5136973;27;20234;-60
2023/02/10 06:01:28;;;;;;;32.55;19.95;;;;;;;;;;5136890;27;20270;-59
2023/02/10 06:03:55;;;;;;;31.92;20.13;;;;;;;;;;5136721;27;20265;-60
2023/02/10 06:06:22;;;;;;;34.40;19.40;;;;;;;;;;5136721;27;20204;-59
2023/02/10 06:08:49;;;;;;;28.85;19.60;;;;;;;;;;5136573;27;20196;-60
2023/02/10 06:11:18;;;;;;;32.38;19.98;;;;;;;;;;5136664;27;20288;-60
2023/02/10 06:13:45;;;;;;;35.35;18.95;;;;;;;;;;5136658;27;20287;-60
2023/02/10 06:16:12;;;;;;;36.42;20.30;;;;;;;;;;5136467;27;20193;-60
2023/02/10 06:18:39;;;;;;;32.65;20.33;;;;;;;;;;5136331;27;20224;-60
2023/02/10 06:21:06;;;;;;;32.45;20.15;;;;;;;;;;5136202;27;20284;-60
2023/02/10 06:23:33;;;;;;;30.67;20.30;;;;;;;;;;5136519;27;20189;-60
2023/02/10 06:26:00;;;;;;;32.70;20.63;;;;;;;;;;5136436;27;20194;-60
2023/02/10 06:28:29;;;;;;;33.38;21.20;;;;;;;;;;5135529;27;20184;-60
2023/02/10 06:30:56;;;;;;;34.10;23.08;;;;;;;;;;5136138;27;20194;-60
2023/02/10 06:33:23;;;;;;;35.53;20.80;;;;;;;;;;5136018;27;20575;-60
2023/02/10 06:35:50;;;;;;;39.47;21.10;;;;;;;;;;5136007;27;20711;-60
2023/02/10 06:38:17;;;;;;;38.30;24.48;;;;;;;;;;5136005;27;20227;-60
2023/02/10 06:40:44;;;;;;;40.72;21.70;;;;;;;;;;5136200;27;20188;-60
2023/02/10 06:43:11;;;;;;;38.15;23.23;;;;;;;;;;5135760;27;20235;-61
2023/02/10 06:45:39;;;;;;;37.28;23.00;;;;;;;;;;5136160;27;20215;-60
2023/02/10 06:48:06;;;;;;;43.40;21.55;;;;;;;;;;5135800;27;20628;-60
2023/02/10 06:50:33;;;;;;;37.75;22.67;;;;;;;;;;5135972;27;20188;-60
2023/02/10 06:53:00;;;;;;;35.80;22.35;;;;;;;;;;5135896;27;20193;-60
2023/02/10 06:55:27;;;;;;;38.67;23.58;;;;;;;;;;5135883;27;20300;-59
2023/02/10 06:57:54;;;;;;;34.28;22.50;;;;;;;;;;5135711;27;20480;-59
2023/02/10 07:00:21;;;;;;;35.67;22.27;;;;;;;;;;5135519;27;20722;-60
2023/02/10 07:02:49;;;;;;;38.33;22.15;;;;;;;;;;5135401;27;20218;-60
2023/02/10 07:05:16;;;;;;;35.95;22.85;;;;;;;;;;5135570;27;20189;-59
2023/02/10 07:07:43;;;;;;;42.10;23.15;;;;;;;;;;5135677;27;20196;-59
2023/02/10 07:10:11;;;;;;;37.50;22.48;;;;;;;;;;5135597;27;20272;-59
2023/02/10 07:12:38;;;;;;;36.10;22.50;;;;;;;;;;5135415;27;20555;-59
2023/02/10 07:15:05;;;;;;;41.80;22.92;;;;;;;;;;5135066;27;20195;-59
2023/02/10 07:17:32;;;;;;;39.10;24.50;;;;;;;;;;5135331;27;20214;-60
2023/02/10 07:20:01;;;;;;;36.58;23.48;;;;;;;;;;5135284;27;20189;-59
2023/02/10 07:22:27;;;;;;;36.63;23.10;;;;;;;;;;5135137;27;20184;-59
2023/02/10 07:24:55;;;;;;;42.30;21.40;;;;;;;;;;5135130;27;20318;-59
2023/02/10 07:27:22;;;;;;;30.48;21.92;;;;;;;;;;5135228;27;20248;-59
2023/02/10 07:29:49;;;;;;;38.97;22.60;;;;;;;;;;5135014;27;20644;-59
2023/02/10 07:32:16;;;;;;;41.15;22.33;;;;;;;;;;5135166;27;20283;-59
2023/02/10 07:34:43;;;;;;;31.00;21.45;;;;;;;;;;5135185;27;20203;-60
2023/02/10 07:37:11;;;;;;;37.78;22.23;;;;;;;;;;5134973;27;20596;-59
2023/02/10 07:39:38;;;;;;;41.60;23.40;;;;;;;;;;5133782;27;20192;-59
2023/02/10 07:42:05;;;;;;;35.50;23.38;;;;;;;;;;5134636;27;20187;-59
2023/02/10 07:44:32;;;;;;;31.58;21.55;;;;;;;;;;5134540;27;20279;-59
2023/02/10 07:46:59;;;;;;;37.00;22.88;;;;;;;;;;5134874;27;20677;-59
2023/02/10 07:49:28;;;;;;;38.05;21.55;;;;;;;;;;5134791;27;20203;-60
2023/02/10 07:51:55;;;;;;;34.85;21.60;;;;;;;;;;5134611;27;20185;-59
2023/02/10 07:54:23;;;;;;;36.40;21.42;;;;;;;;;;5134669;27;20277;-59
2023/02/10 07:56:50;;;;;;;37.42;22.05;;;;;;;;;;5134613;27;20200;-59
2023/02/10 07:59:17;;;;;;;37.58;21.77;;;;;;;;;;5134477;27;20259;-59
2023/02/10 08:01:45;;;;;;;34.67;21.25;;;;;;;;;;5134450;27;20192;-59
2023/02/10 08:04:12;;;;;;;36.05;20.80;;;;;;;;;;5134472;27;20189;-60
2023/02/10 08:06:39;;;;;;;32.70;21.65;;;;;;;;;;5134417;27;20185;-59
2023/02/10 08:09:06;;;;;;;39.53;21.08;;;;;;;;;;5134279;27;20200;-59
2023/02/10 08:11:34;;;;;;;38.53;23.00;;;;;;;;;;5134317;27;20189;-59
2023/02/10 08:14:02;;;;;;;34.60;22.10;;;;;;;;;;5134354;27;20189;-60
2023/02/10 08:16:29;;;;;;;35.42;24.50;;;;;;;;;;5134343;27;20225;-59
2023/02/10 08:18:56;;;;;;;38.47;23.17;;;;;;;;;;5134040;27;20710;-60
2023/02/10 08:21:23;;;;;;;38.25;23.92;;;;;;;;;;5134110;27;20671;-60
2023/02/10 08:23:54;;;;;;;34.28;22.02;;;;;;;;;;5134041;27;20193;-60
2023/02/10 08:26:22;;;;;;;37.22;22.77;;;;;;;;;;5134301;27;20181;-59
2023/02/10 08:28:51;;;;;;;35.35;22.92;;;;;;;;;;5134135;27;20671;-59
2023/02/10 08:31:18;;;;;;;38.97;23.98;;;;;;;;;;5134061;27;20611;-59
2023/02/10 08:33:45;;;;;;;38.70;23.83;;;;;;;;;;5134071;27;20197;-59
2023/02/10 08:36:13;;;;;;;40.30;26.77;;;;;;;;;;5133847;27;20704;-59
2023/02/10 08:38:40;;;;;;;43.05;24.27;;;;;;;;;;5133589;27;20522;-60
2023/02/10 08:41:07;;;;;;;35.45;22.27;;;;;;;;;;5134005;27;20277;-59
2023/02/10 08:43:34;;;;;;;42.88;23.88;;;;;;;;;;5133938;27;20204;-60
2023/02/10 08:46:02;;;;;;;39.70;23.30;;;;;;;;;;5133585;27;20221;-60
2023/02/10 08:48:30;;;;;;;33.80;22.08;;;;;;;;;;5133754;27;20619;-59
2023/02/10 08:50:58;;;;;;;34.65;21.77;;;;;;;;;;5133253;27;20200;-60
2023/02/10 08:53:25;;;;;;;36.28;22.65;;;;;;;;;;5134119;27;20284;-60
2023/02/10 08:55:58;;;;;;;36.38;21.08;;;;;;;;;;5133854;28;20613;-60
2023/02/10 08:58:25;;;;;;;33.35;21.40;;;;;;;;;;5133998;28;20644;-60
2023/02/10 09:00:52;;;;;;;34.28;21.08;;;;;;;;;;5126246;28;20189;-60
2023/02/10 09:03:20;;;;;;;36.70;22.30;;;;;;;;;;5125682;28;20633;-59
2023/02/10 09:05:48;;;;;;;39.63;22.38;;;;;;;;;;5133437;28;20653;-59
2023/02/10 09:08:16;;;;;;;34.15;22.00;;;;;;;;;;5133559;28;20201;-60
2023/02/10 09:10:43;;;;;;;36.90;21.15;;;;;;;;;;5133485;28;20195;-60
2023/02/10 09:13:10;;;;;;;36.95;22.20;;;;;;;;;;5133543;28;20228;-60
2023/02/10 09:15:38;;;;;;;32.55;20.65;;;;;;;;;;5133339;28;20193;-59
2023/02/10 09:18:05;;;;;;;35.30;20.40;;;;;;;;;;5118982;28;20244;-60
2023/02/10 09:20:34;;;;;;;29.48;19.48;;;;;;;;;;5112802;28;20200;-59
2023/02/10 09:23:01;;;;;;;30.67;18.45;;;;;;;;;;5112978;28;20672;-59
2023/02/10 09:25:27;;;;;;;35.38;20.35;;;;;;;;;;5113055;28;20389;-60
2023/02/10 09:27:57;;;;;;;30.92;20.23;;;;;;;;;;5113382;28;20190;-59
2023/02/10 09:30:24;;;;;;;37.38;21.40;;;;;;;;;;5112824;28;20666;-60
2023/02/10 09:32:51;;;;;;;32.70;19.77;;;;;;;;;;5112716;28;20280;-59
2023/02/10 09:35:18;;;;;;;33.38;20.65;;;;;;;;;;5112875;28;20195;-59
2023/02/10 09:37:46;;;;;;;33.53;19.42;;;;;;;;;;5112941;28;20851;-59
2023/02/10 09:40:17;;;;;;;35.35;21.15;;;;;;;;;;5112833;28;20289;-59
2023/02/10 09:42:49;;;;;;;32.88;20.85;;;;;;;;;;5112710;28;20197;-59
2023/02/10 09:45:19;;;;;;;37.13;20.20;;;;;;;;;;5112282;28;20229;-59
2023/02/10 09:47:49;;;;;;;31.58;19.05;;;;;;;;;;5112961;28;20206;-60
2023/02/10 09:50:27;;;;;;;31.00;18.95;;;;;;;;;;5112899;28;20580;-60
2023/02/10 09:53:06;;;;;;;38.67;19.40;;;;;;;;;;5112687;28;20285;-59
2023/02/10 09:55:35;;;;;;;30.80;19.17;;;;;;;;;;5112594;28;20595;-59
2023/02/10 09:58:04;;;;;;;31.90;20.40;;;;;;;;;;5112656;28;20190;-60
2023/02/10 10:00:32;;;;;;;40.43;21.60;;;;;;;;;;5112343;28;20962;-60
2023/02/10 10:03:00;;;;;;;35.97;19.40;;;;;;;;;;5114507;28;20459;-60
2023/02/10 10:05:37;;;;;;;31.65;20.88;;;;;;;;;;5116271;28;20190;-60
2023/02/10 10:08:09;;;;;;;34.92;20.10;;;;;;;;;;5116152;28;20194;-60
2023/02/10 10:10:40;;;;;;;27.85;18.60;;;;;;;;;;5118296;27;20267;-60
2023/02/10 10:13:10;;;;;;;29.33;18.73;;;;;;;;;;5124764;27;20679;-60
2023/02/10 10:15:40;;;;;;;40.78;21.25;;;;;;;;;;5117443;27;20269;-60
2023/02/10 10:18:12;;;;;;;32.63;20.10;;;;;;;;;;5115851;28;20649;-60
2023/02/10 10:20:45;;;;;;;30.25;20.40;;;;;;;;;;5115658;28;20283;-60
2023/02/10 10:23:24;;;;;;;37.72;21.42;;;;;;;;;;5116101;28;20298;-60
2023/02/10 10:25:56;;;;;;;39.90;19.83;;;;;;;;;;5115894;28;20190;-60
2023/02/10 10:28:27;;;;;;;34.28;19.70;;;;;;;;;;5115800;28;20282;-60
2023/02/10 10:30:56;;;;;;;33.35;20.98;;;;;;;;;;5126408;27;20231;-60
2023/02/10 10:33:25;;;;;;;35.20;19.63;;;;;;;;;;5125974;27;20205;-60
2023/02/10 10:35:54;;;;;;;30.92;19.63;;;;;;;;;;5124486;27;20193;-60
2023/02/10 10:38:23;;;;;;;37.80;21.27;;;;;;;;;;5117065;27;20192;-60
2023/02/10 10:40:51;;;;;;;37.05;20.15;;;;;;;;;;5115565;28;20448;-60
2023/02/10 10:43:21;;;;;;;42.43;20.57;;;;;;;;;;5115395;28;20190;-60
2023/02/10 10:45:50;;;;;;;31.33;18.85;;;;;;;;;;5115212;28;20538;-61
2023/02/10 10:48:18;;;;;;;32.47;19.88;;;;;;;;;;5115655;28;20186;-61
2023/02/10 10:50:45;;;;;;;31.70;18.95;;;;;;;;;;5115222;28;20207;-61
2023/02/10 10:53:15;;;;;;;28.85;17.77;;;;;;;;;;5115324;28;20273;-61
2023/02/10 10:55:45;;;;;;;38.72;20.52;;;;;;;;;;5125415;27;20212;-61
2023/02/10 10:58:15;;;;;;;32.05;19.73;;;;;;;;;;5129858;27;20625;-61
2023/02/10 11:00:50;;;;;;;33.72;20.67;;;;;;;;;;5136009;27;20186;-61
2023/02/10 11:03:17;;;;;;;32.28;20.17;;;;;;;;;;5135857;27;20196;-61
2023/02/10 11:05:45;;;;;;;39.13;21.50;;;;;;;;;;5135743;27;20243;-61
2023/02/10 11:08:23;;;;;;;32.83;20.25;;;;;;;;;;5135573;27;20197;-61
2023/02/10 11:10:55;;;;;;;35.22;20.40;;;;;;;;;;5135460;27;20208;-61
2023/02/10 11:13:23;;;;;;;30.52;19.13;;;;;;;;;;5135392;27;20194;-60
2023/02/10 11:15:50;;;;;;;28.92;18.45;;;;;;;;;;5135423;27;20194;-61
2023/02/10 11:18:18;;;;;;;35.75;19.98;;;;;;;;;;5135339;27;20193;-61
2023/02/10 11:20:53;;;;;;;31.50;19.40;;;;;;;;;;5135095;27;20197;-61
2023/02/10 11:23:20;;;;;;;29.52;18.98;;;;;;;;;;5135147;27;20446;-61
2023/02/10 11:25:49;;;;;;;36.47;18.98;;;;;;;;;;5135385;27;20189;-61
2023/02/10 11:28:21;;;;;;;34.38;19.67;;;;;;;;;;5135697;27;20200;-61
2023/02/10 11:30:49;;;;;;;30.67;18.43;;;;;;;;;;5135079;27;20724;-59
2023/02/10 11:33:21;;;;;;;36.00;20.33;;;;;;;;;;5135137;27;20872;-61
2023/02/10 11:35:49;;;;;;;35.33;20.98;;;;;;;;;;5135068;27;20197;-61
2023/02/10 11:38:22;;;;;;;32.93;20.10;;;;;;;;;;5135400;27;20196;-63
2023/02/10 11:40:51;;;;;;;32.47;18.17;;;;;;;;;;5134973;27;20506;-59
2023/02/10 11:43:20;;;;;;;28.23;18.47;;;;;;;;;;5134922;27;20293;-59
2023/02/10 11:45:54;;;;;;;31.33;17.50;;;;;;;;;;5134658;27;20502;-59
2023/02/10 11:48:22;;;;;;;37.43;19.90;;;;;;;;;;5134649;27;20993;-59
2023/02/10 11:50:51;;;;;;;27.47;18.00;;;;;;;;;;5134811;27;20447;-59
2023/02/10 11:53:23;;;;;;;35.20;19.88;;;;;;;;;;5134849;27;20475;-59
2023/02/10 11:55:53;;;;;;;33.72;18.95;;;;;;;;;;5134713;27;20250;-60
2023/02/10 12:01:22;;;;;;;33.92;19.02;;;;;;;;;;5134675;27;20199;-59
2023/02/10 12:03:55;;;;;;;33.00;17.85;;;;;;;;;;5134437;27;20191;-59
2023/02/10 12:06:26;;;;;;;26.77;17.67;;;;;;;;;;5134427;27;20189;-59
2023/02/10 12:08:57;;;;;;;34.53;18.40;;;;;;;;;;5134255;27;20201;-59
2023/02/10 12:11:28;;;;;;;28.03;16.20;;;;;;;;;;5128573;27;20787;-59
2023/02/10 12:14:02;;;;;;;24.70;16.42;;;;;;;;;;5124020;27;20459;-59
2023/02/10 12:16:34;;;;;;;30.65;15.77;;;;;;;;;;5133777;27;20530;-60
2023/02/10 12:19:04;;;;;;;25.80;15.30;;;;;;;;;;5133561;27;20213;-62
2023/02/10 12:21:40;;;;;;;30.00;15.87;;;;;;;;;;5133229;27;20456;-61
2023/02/10 12:24:14;;;;;;;29.00;15.93;;;;;;;;;;5133035;27;20454;-61
2023/02/10 12:26:44;;;;;;;27.65;16.90;;;;;;;;;;5133878;27;20828;-61
2023/02/10 12:29:19;;;;;;;31.07;15.77;;;;;;;;;;5134285;27;20201;-61
2023/02/10 12:31:50;;;;;;;25.63;16.20;;;;;;;;;;5134097;27;20455;-61
2023/02/10 12:34:23;;;;;;;27.33;16.67;;;;;;;;;;5134062;27;20600;-61
2023/02/10 12:36:53;;;;;;;31.77;17.20;;;;;;;;;;5134284;27;20859;-62
2023/02/10 12:39:22;;;;;;;31.03;17.00;;;;;;;;;;5134010;27;20837;-61
2023/02/10 12:41:54;;;;;;;26.63;16.50;;;;;;;;;;5134034;27;20447;-61
2023/02/10 12:44:33;;;;;;;36.20;18.10;;;;;;;;;;5133743;27;20451;-61
2023/02/10 12:47:03;;;;;;;28.93;17.87;;;;;;;;;;5133966;27;20458;-61
2023/02/10 12:49:36;;;;;;;28.80;17.80;;;;;;;;;;5133976;27;20482;-61
2023/02/10 12:52:05;;;;;;;26.20;16.97;;;;;;;;;;5133922;27;20459;-61
2023/02/10 12:54:36;;;;;;;28.37;17.90;;;;;;;;;;5133729;27;20445;-61
2023/02/10 12:57:06;;;;;;;28.67;18.05;;;;;;;;;;5133749;27;21017;-61
2023/02/10 12:59:37;;;;;;;31.83;18.60;;;;;;;;;;5133546;28;20282;-60
2023/02/10 13:02:06;;;;;;;27.43;17.00;;;;;;;;;;5133749;28;20465;-61
2023/02/10 13:04:33;;;;;;;32.43;19.30;;;;;;;;;;5133675;28;20441;-61
2023/02/10 13:07:02;;;;;;;28.98;18.73;;;;;;;;;;5133631;28;20448;-61
2023/02/10 13:09:32;;;;;;;30.07;18.60;;;;;;;;;;5133453;28;20290;-61
2023/02/10 13:12:07;;;;;;;29.53;17.60;;;;;;;;;;5133538;28;20443;-60
2023/02/10 13:14:36;;;;;;;28.10;18.83;;;;;;;;;;5133768;28;20456;-61
2023/02/10 13:17:03;;;;;;;27.70;16.80;;;;;;;;;;5133556;28;20551;-61
2023/02/10 13:19:35;;;;;;;27.30;17.60;;;;;;;;;;5133471;28;20526;-61
2023/02/10 13:22:04;;;;;;;25.80;16.40;;;;;;;;;;5133433;28;20452;-61
2023/02/10 13:24:32;;;;;;;27.37;16.40;;;;;;;;;;5133708;28;20445;-61
2023/02/10 13:27:04;;;;;;;31.77;15.87;;;;;;;;;;5133576;28;20781;-60
2023/02/10 13:29:36;;;;;;;29.67;18.57;;;;;;;;;;5133585;28;20454;-61
2023/02/10 13:32:23;;;;;;;24.80;15.80;;;;;;;;;;5133458;28;20455;-61
2023/02/10 13:34:52;;;;;;;22.67;15.30;;;;;;;;;;5133648;28;20457;-61
2023/02/10 13:37:24;;;;;;;25.77;15.03;;;;;;;;;;5135988;27;20552;-61
2023/02/10 13:39:52;;;;;;;31.13;16.50;;;;;;;;;;5137470;27;20522;-61
2023/02/10 13:42:24;;;;;;;28.30;17.23;;;;;;;;;;5137166;27;20815;-61
2023/02/10 13:44:57;;;;;;;27.77;15.60;;;;;;;;;;5137015;27;20482;-61
2023/02/10 13:47:28;;;;;;;36.03;17.80;;;;;;;;;;5137331;27;20543;-61
2023/02/10 13:49:57;;;;;;;23.77;16.70;;;;;;;;;;5137057;27;21114;-61
2023/02/10 13:52:26;;;;;;;24.50;15.27;;;;;;;;;;5137197;27;20449;-60
2023/02/10 13:54:57;;;;;;;25.40;14.57;;;;;;;;;;5136909;27;20483;-60
2023/02/10 13:57:29;;;;;;;22.47;13.03;;;;;;;;;;5136943;27;20449;-61
2023/02/10 14:00:05;;;;;;;25.47;14.63;;;;;;;;;;5137042;27;20919;-61
2023/02/10 14:02:34;;;;;;;22.57;12.60;;;;;;;;;;5137050;27;20464;-60
2023/02/10 14:05:01;;;;;;;20.93;13.40;;;;;;;;;;5136813;27;20542;-61
2023/02/10 14:07:35;;;;;;;22.70;12.97;;;;;;;;;;5136688;27;20543;-61
2023/02/10 14:10:09;;;;;;;19.90;12.53;;;;;;;;;;5136503;27;20456;-61
2023/02/10 14:12:36;;;;;;;23.97;13.17;;;;;;;;;;5136768;27;20456;-61
2023/02/10 14:15:22;;;;;;;29.03;13.13;;;;;;;;;;5136813;27;20861;-61
2023/02/10 14:18:00;;;;;;;19.83;11.17;;;;;;;;;;5136492;27;20454;-61
2023/02/10 14:20:30;;;;;;;19.70;10.97;;;;;;;;;;5136711;27;20511;-61
2023/02/10 14:23:00;;;;;;;21.87;11.83;;;;;;;;;;5136418;27;20478;-61
2023/02/10 14:25:33;;;;;;;32.17;12.20;;;;;;;;;;5136269;27;21000;-61
2023/02/10 14:28:03;;;;;;;17.23;11.30;;;;;;;;;;5136514;27;20520;-60
2023/02/10 14:30:33;;;;;;;24.43;12.87;;;;;;;;;;5136339;27;20447;-61
2023/02/10 14:33:02;;;;;;;18.83;11.40;;;;;;;;;;5136501;27;20587;-61